sensor_id;sensor_type;location;lat;lon;timestamp;temperature;humidity
18823;DHT22;9540;51.550;7.980;2022-12-18T00:02:01;-11.50;99.90
18823;DHT22;9540;51.550;7.980;2022-12-18T00:04:29;-11.50;99.90
18823;DHT22;9540;51.550;7.980;2022-12-18T00:06:57;-11.30;99.90
18823;DHT22;9540;51.550;7.980;2022-12-18T00:09:24;-11.30;99.90
18823;DHT22;9540;51.550;7.980;2022-12-18T00:11:51;-11.30;99.90
18823;DHT22;9540;51.550;7.980;2022-12-18T00:14:18;-11.40;99.90
18823;DHT22;9540;51.550;7.980;2022-12-18T00:16:46;-11.50;99.90
18823;DHT22;9540;51.550;7.980;2022-12-18T00:19:14;-11.50;99.90
18823;DHT22;9540;51.550;7.980;2022-12-18T00:21:42;-11.60;99.90
18823;DHT22;9540;51.550;7.980;2022-12-18T00:24:11;-11.60;99.90
18823;DHT22;9540;51.550;7.980;2022-12-18T00:26:38;-11.60;99.90
18823;DHT22;9540;51.550;7.980;2022-12-18T00:29:07;-11.70;99.90
18823;DHT22;9540;51.550;7.980;2022-12-18T00:31:35;-11.60;99.90
18823;DHT22;9540;51.550;7.980;2022-12-18T00:34:02;-11.70;99.90
18823;DHT22;9540;51.550;7.980;2022-12-18T00:36:31;-11.60;99.90
18823;DHT22;9540;51.550;7.980;2022-12-18T00:39:00;-11.60;99.90
18823;DHT22;9540;51.550;7.980;2022-12-18T00:41:31;-11.60;99.90
18823;DHT22;9540;51.550;7.980;2022-12-18T00:44:16;-11.60;99.90
18823;DHT22;9540;51.550;7.980;2022-12-18T00:46:44;-11.60;99.90
18823;DHT22;9540;51.550;7.980;2022-12-18T00:49:13;-11.60;99.90
18823;DHT22;9540;51.550;7.980;2022-12-18T00:51:42;-11.60;99.90
18823;DHT22;9540;51.550;7.980;2022-12-18T00:54:18;-11.60;99.90
18823;DHT22;9540;51.550;7.980;2022-12-18T00:56:58;-11.60;99.90
18823;DHT22;9540;51.550;7.980;2022-12-18T00:59:25;-11.60;99.90
18823;DHT22;9540;51.550;7.980;2022-12-18T01:01:57;-11.70;99.90
18823;DHT22;9540;51.550;7.980;2022-12-18T01:04:24;-11.70;99.90
18823;DHT22;9540;51.550;7.980;2022-12-18T01:06:51;-11.70;99.90
18823;DHT22;9540;51.550;7.980;2022-12-18T01:09:18;-11.70;99.90
18823;DHT22;9540;51.550;7.980;2022-12-18T01:11:45;-11.70;99.90
18823;DHT22;9540;51.550;7.980;2022-12-18T01:14:13;-11.70;99.90
18823;DHT22;9540;51.550;7.980;2022-12-18T01:17:18;-11.70;99.90
18823;DHT22;9540;51.550;7.980;2022-12-18T01:19:44;-11.70;99.90
18823;DHT22;9540;51.550;7.980;2022-12-18T01:22:11;-11.60;99.90
18823;DHT22;9540;51.550;7.980;2022-12-18T01:24:38;-11.60;99.90
18823;DHT22;9540;51.550;7.980;2022-12-18T01:27:05;-11.60;99.90
18823;DHT22;9540;51.550;7.980;2022-12-18T01:29:34;-11.50;99.90
18823;DHT22;9540;51.550;7.980;2022-12-18T01:32:03;-11.40;99.90
18823;DHT22;9540;51.550;7.980;2022-12-18T01:34:30;-11.40;99.90
18823;DHT22;9540;51.550;7.980;2022-12-18T01:36:57;-11.40;99.90
18823;DHT22;9540;51.550;7.980;2022-12-18T01:39:25;-11.40;99.90
18823;DHT22;9540;51.550;7.980;2022-12-18T01:41:52;-11.30;99.90
18823;DHT22;9540;51.550;7.980;2022-12-18T01:44:55;-11.30;99.90
18823;DHT22;9540;51.550;7.980;2022-12-18T01:47:27;-11.30;99.90
18823;DHT22;9540;51.550;7.980;2022-12-18T01:49:56;-11.20;99.90
18823;DHT22;9540;51.550;7.980;2022-12-18T01:52:25;-11.20;99.90
18823;DHT22;9540;51.550;7.980;2022-12-18T01:54:53;-11.20;99.90
18823;DHT22;9540;51.550;7.980;2022-12-18T01:57:22;-11.20;99.90
18823;DHT22;9540;51.550;7.980;2022-12-18T01:59:53;-11.30;99.90
18823;DHT22;9540;51.550;7.980;2022-12-18T02:02:22;-11.30;99.90
18823;DHT22;9540;51.550;7.980;2022-12-18T02:04:49;-11.30;99.90
18823;DHT22;9540;51.550;7.980;2022-12-18T02:07:22;-11.30;99.90
18823;DHT22;9540;51.550;7.980;2022-12-18T02:09:58;-11.40;99.90
18823;DHT22;9540;51.550;7.980;2022-12-18T02:12:31;-11.40;99.90
18823;DHT22;9540;51.550;7.980;2022-12-18T02:15:08;-11.40;99.90
18823;DHT22;9540;51.550;7.980;2022-12-18T02:17:39;-11.40;99.90
18823;DHT22;9540;51.550;7.980;2022-12-18T02:20:13;-11.40;99.90
18823;DHT22;9540;51.550;7.980;2022-12-18T02:22:49;-11.30;99.90
18823;DHT22;9540;51.550;7.980;2022-12-18T02:25:33;-11.20;99.90
18823;DHT22;9540;51.550;7.980;2022-12-18T02:28:07;-11.20;99.90
18823;DHT22;9540;51.550;7.980;2022-12-18T02:30:36;-11.30;99.90
18823;DHT22;9540;51.550;7.980;2022-12-18T02:33:05;-11.40;99.90
18823;DHT22;9540;51.550;7.980;2022-12-18T02:35:34;-11.40;99.90
18823;DHT22;9540;51.550;7.980;2022-12-18T02:38:03;-11.50;99.90
18823;DHT22;9540;51.550;7.980;2022-12-18T02:40:30;-11.50;99.90
18823;DHT22;9540;51.550;7.980;2022-12-18T02:43:06;-11.60;99.90
18823;DHT22;9540;51.550;7.980;2022-12-18T02:45:33;-11.60;99.90
18823;DHT22;9540;51.550;7.980;2022-12-18T02:48:01;-11.60;99.90
18823;DHT22;9540;51.550;7.980;2022-12-18T02:50:35;-11.60;99.90
18823;DHT22;9540;51.550;7.980;2022-12-18T02:53:12;-11.60;99.90
18823;DHT22;9540;51.550;7.980;2022-12-18T02:55:52;-11.60;99.90
18823;DHT22;9540;51.550;7.980;2022-12-18T02:58:28;-11.50;99.90
18823;DHT22;9540;51.550;7.980;2022-12-18T03:01:01;-11.60;99.90
18823;DHT22;9540;51.550;7.980;2022-12-18T03:03:31;-11.50;99.90
18823;DHT22;9540;51.550;7.980;2022-12-18T03:06:03;-11.50;99.90
18823;DHT22;9540;51.550;7.980;2022-12-18T03:08:36;-11.50;99.90
18823;DHT22;9540;51.550;7.980;2022-12-18T03:11:07;-11.40;99.90
18823;DHT22;9540;51.550;7.980;2022-12-18T03:13:39;-11.40;99.90
18823;DHT22;9540;51.550;7.980;2022-12-18T03:16:11;-11.40;99.90
18823;DHT22;9540;51.550;7.980;2022-12-18T03:18:42;-11.40;99.90
18823;DHT22;9540;51.550;7.980;2022-12-18T03:21:14;-11.30;99.90
18823;DHT22;9540;51.550;7.980;2022-12-18T03:23:47;-11.30;99.90
18823;DHT22;9540;51.550;7.980;2022-12-18T03:26:18;-11.30;99.90
18823;DHT22;9540;51.550;7.980;2022-12-18T03:28:50;-11.20;99.90
18823;DHT22;9540;51.550;7.980;2022-12-18T03:31:18;-11.20;99.90
18823;DHT22;9540;51.550;7.980;2022-12-18T03:33:51;-11.30;99.90
18823;DHT22;9540;51.550;7.980;2022-12-18T03:36:18;-11.40;99.90
18823;DHT22;9540;51.550;7.980;2022-12-18T03:38:46;-11.40;99.90
18823;DHT22;9540;51.550;7.980;2022-12-18T03:41:17;-11.50;99.90
18823;DHT22;9540;51.550;7.980;2022-12-18T03:43:51;-11.50;99.90
18823;DHT22;9540;51.550;7.980;2022-12-18T03:46:26;-11.40;99.90
18823;DHT22;9540;51.550;7.980;2022-12-18T03:48:59;-11.50;99.90
18823;DHT22;9540;51.550;7.980;2022-12-18T03:51:35;-11.50;99.90
18823;DHT22;9540;51.550;7.980;2022-12-18T03:54:05;-11.50;99.90
18823;DHT22;9540;51.550;7.980;2022-12-18T03:56:36;-11.50;99.90
18823;DHT22;9540;51.550;7.980;2022-12-18T03:59:09;-11.50;99.90
18823;DHT22;9540;51.550;7.980;2022-12-18T04:01:40;-11.50;99.90
18823;DHT22;9540;51.550;7.980;2022-12-18T04:04:09;-11.50;99.90
18823;DHT22;9540;51.550;7.980;2022-12-18T04:06:38;-11.40;99.90
18823;DHT22;9540;51.550;7.980;2022-12-18T04:09:07;-11.30;99.90
18823;DHT22;9540;51.550;7.980;2022-12-18T04:11:34;-11.30;99.90
18823;DHT22;9540;51.550;7.980;2022-12-18T04:14:01;-11.20;99.90
18823;DHT22;9540;51.550;7.980;2022-12-18T04:16:29;-11.20;99.90
18823;DHT22;9540;51.550;7.980;2022-12-18T04:18:56;-11.10;99.90
18823;DHT22;9540;51.550;7.980;2022-12-18T04:21:23;-11.10;99.90
18823;DHT22;9540;51.550;7.980;2022-12-18T04:23:50;-11.10;99.90
18823;DHT22;9540;51.550;7.980;2022-12-18T04:26:17;-11.10;99.90
18823;DHT22;9540;51.550;7.980;2022-12-18T04:28:44;-11.10;99.90
18823;DHT22;9540;51.550;7.980;2022-12-18T04:31:12;-11.00;99.90
18823;DHT22;9540;51.550;7.980;2022-12-18T04:33:40;-11.10;99.90
18823;DHT22;9540;51.550;7.980;2022-12-18T04:36:07;-11.10;99.90
18823;DHT22;9540;51.550;7.980;2022-12-18T04:38:34;-11.10;99.90
18823;DHT22;9540;51.550;7.980;2022-12-18T04:41:01;-11.00;99.90
18823;DHT22;9540;51.550;7.980;2022-12-18T04:43:28;-11.00;99.90
18823;DHT22;9540;51.550;7.980;2022-12-18T04:46:02;-11.10;99.90
18823;DHT22;9540;51.550;7.980;2022-12-18T04:48:29;-11.10;99.90
18823;DHT22;9540;51.550;7.980;2022-12-18T04:50:57;-11.00;99.90
18823;DHT22;9540;51.550;7.980;2022-12-18T04:53:24;-11.00;99.90
18823;DHT22;9540;51.550;7.980;2022-12-18T04:56:01;-10.90;99.90
18823;DHT22;9540;51.550;7.980;2022-12-18T04:58:28;-10.90;99.90
18823;DHT22;9540;51.550;7.980;2022-12-18T05:00:55;-11.00;99.90
18823;DHT22;9540;51.550;7.980;2022-12-18T05:03:22;-11.00;99.90
18823;DHT22;9540;51.550;7.980;2022-12-18T05:05:49;-11.00;99.90
18823;DHT22;9540;51.550;7.980;2022-12-18T05:08:18;-11.10;99.90
18823;DHT22;9540;51.550;7.980;2022-12-18T05:10:45;-11.10;99.90
18823;DHT22;9540;51.550;7.980;2022-12-18T05:13:12;-11.10;99.90
18823;DHT22;9540;51.550;7.980;2022-12-18T05:15:39;-11.10;99.90
18823;DHT22;9540;51.550;7.980;2022-12-18T05:18:08;-11.10;99.90
18823;DHT22;9540;51.550;7.980;2022-12-18T05:20:35;-11.10;99.90
18823;DHT22;9540;51.550;7.980;2022-12-18T05:23:02;-11.20;99.90
18823;DHT22;9540;51.550;7.980;2022-12-18T05:25:30;-11.10;99.90
18823;DHT22;9540;51.550;7.980;2022-12-18T05:27:57;-11.10;99.90
18823;DHT22;9540;51.550;7.980;2022-12-18T05:30:24;-11.00;99.90
18823;DHT22;9540;51.550;7.980;2022-12-18T05:32:51;-11.10;99.90
18823;DHT22;9540;51.550;7.980;2022-12-18T05:35:18;-11.10;99.90
18823;DHT22;9540;51.550;7.980;2022-12-18T05:37:45;-11.20;99.90
18823;DHT22;9540;51.550;7.980;2022-12-18T05:40:12;-11.20;99.90
18823;DHT22;9540;51.550;7.980;2022-12-18T05:42:40;-11.10;99.90
18823;DHT22;9540;51.550;7.980;2022-12-18T05:45:08;-10.90;99.90
18823;DHT22;9540;51.550;7.980;2022-12-18T05:47:36;-10.70;99.90
18823;DHT22;9540;51.550;7.980;2022-12-18T05:50:03;-10.50;99.90
18823;DHT22;9540;51.550;7.980;2022-12-18T05:52:30;-10.30;99.90
18823;DHT22;9540;51.550;7.980;2022-12-18T05:54:57;-10.00;99.90
18823;DHT22;9540;51.550;7.980;2022-12-18T05:57:25;-9.80;99.90
18823;DHT22;9540;51.550;7.980;2022-12-18T05:59:53;-9.40;99.90
18823;DHT22;9540;51.550;7.980;2022-12-18T06:02:20;-9.20;99.90
18823;DHT22;9540;51.550;7.980;2022-12-18T06:04:47;-9.10;99.90
18823;DHT22;9540;51.550;7.980;2022-12-18T06:07:14;-9.00;99.90
18823;DHT22;9540;51.550;7.980;2022-12-18T06:09:41;-9.10;99.90
18823;DHT22;9540;51.550;7.980;2022-12-18T06:12:08;-9.10;99.90
18823;DHT22;9540;51.550;7.980;2022-12-18T06:14:35;-9.00;99.90
18823;DHT22;9540;51.550;7.980;2022-12-18T06:17:03;-8.80;99.90
18823;DHT22;9540;51.550;7.980;2022-12-18T06:19:30;-8.50;99.90
18823;DHT22;9540;51.550;7.980;2022-12-18T06:21:57;-8.20;99.90
18823;DHT22;9540;51.550;7.980;2022-12-18T06:24:24;-7.90;99.90
18823;DHT22;9540;51.550;7.980;2022-12-18T06:26:51;-7.60;99.90
18823;DHT22;9540;51.550;7.980;2022-12-18T06:29:18;-7.50;99.90
18823;DHT22;9540;51.550;7.980;2022-12-18T06:31:45;-7.30;99.90
18823;DHT22;9540;51.550;7.980;2022-12-18T06:34:13;-7.20;99.90
18823;DHT22;9540;51.550;7.980;2022-12-18T06:36:40;-7.00;99.90
18823;DHT22;9540;51.550;7.980;2022-12-18T06:39:07;-6.80;99.90
18823;DHT22;9540;51.550;7.980;2022-12-18T06:41:34;-6.40;99.90
18823;DHT22;9540;51.550;7.980;2022-12-18T06:44:01;-6.10;99.90
18823;DHT22;9540;51.550;7.980;2022-12-18T06:46:27;-5.90;99.90
18823;DHT22;9540;51.550;7.980;2022-12-18T06:48:54;-5.90;99.90
18823;DHT22;9540;51.550;7.980;2022-12-18T06:51:24;-6.10;99.90
18823;DHT22;9540;51.550;7.980;2022-12-18T06:53:51;-6.20;99.90
18823;DHT22;9540;51.550;7.980;2022-12-18T06:56:18;-6.40;99.90
18823;DHT22;9540;51.550;7.980;2022-12-18T06:58:45;-6.70;99.90
18823;DHT22;9540;51.550;7.980;2022-12-18T07:01:13;-6.90;99.90
18823;DHT22;9540;51.550;7.980;2022-12-18T07:03:40;-7.10;99.90
18823;DHT22;9540;51.550;7.980;2022-12-18T07:06:13;-7.20;99.90
18823;DHT22;9540;51.550;7.980;2022-12-18T07:08:41;-7.30;99.90
18823;DHT22;9540;51.550;7.980;2022-12-18T07:11:08;-7.40;99.90
18823;DHT22;9540;51.550;7.980;2022-12-18T07:13:35;-7.50;99.90
18823;DHT22;9540;51.550;7.980;2022-12-18T07:16:07;-7.60;99.90
18823;DHT22;9540;51.550;7.980;2022-12-18T07:18:34;-7.60;99.90
18823;DHT22;9540;51.550;7.980;2022-12-18T07:21:05;-7.60;99.90
18823;DHT22;9540;51.550;7.980;2022-12-18T07:23:33;-7.70;99.90
18823;DHT22;9540;51.550;7.980;2022-12-18T07:26:03;-7.80;99.90
18823;DHT22;9540;51.550;7.980;2022-12-18T07:28:30;-7.60;99.90
18823;DHT22;9540;51.550;7.980;2022-12-18T07:30:58;-7.50;99.90
18823;DHT22;9540;51.550;7.980;2022-12-18T07:33:25;-7.10;99.90
18823;DHT22;9540;51.550;7.980;2022-12-18T07:35:52;-6.70;99.90
18823;DHT22;9540;51.550;7.980;2022-12-18T07:38:19;-6.60;99.90
18823;DHT22;9540;51.550;7.980;2022-12-18T07:40:46;-6.70;99.90
18823;DHT22;9540;51.550;7.980;2022-12-18T07:43:14;-6.70;99.90
18823;DHT22;9540;51.550;7.980;2022-12-18T07:45:42;-6.60;99.90
18823;DHT22;9540;51.550;7.980;2022-12-18T07:48:09;-6.70;99.90
18823;DHT22;9540;51.550;7.980;2022-12-18T07:50:37;-6.70;99.90
18823;DHT22;9540;51.550;7.980;2022-12-18T07:53:04;-6.70;99.90
18823;DHT22;9540;51.550;7.980;2022-12-18T07:55:31;-6.80;99.90
18823;DHT22;9540;51.550;7.980;2022-12-18T07:58:00;-6.70;99.90
18823;DHT22;9540;51.550;7.980;2022-12-18T08:00:29;-6.40;99.90
18823;DHT22;9540;51.550;7.980;2022-12-18T08:02:56;-6.10;99.90
18823;DHT22;9540;51.550;7.980;2022-12-18T08:05:23;-5.90;99.90
18823;DHT22;9540;51.550;7.980;2022-12-18T08:07:50;-5.20;99.90
18823;DHT22;9540;51.550;7.980;2022-12-18T08:10:17;-4.60;99.90
18823;DHT22;9540;51.550;7.980;2022-12-18T08:12:44;-4.10;99.90
18823;DHT22;9540;51.550;7.980;2022-12-18T08:15:11;-3.70;99.90
18823;DHT22;9540;51.550;7.980;2022-12-18T08:17:39;-3.60;99.90
18823;DHT22;9540;51.550;7.980;2022-12-18T08:20:07;-3.40;99.90
18823;DHT22;9540;51.550;7.980;2022-12-18T08:22:37;-3.30;99.90
18823;DHT22;9540;51.550;7.980;2022-12-18T08:25:06;-3.30;99.90
18823;DHT22;9540;51.550;7.980;2022-12-18T08:27:33;-3.20;99.90
18823;DHT22;9540;51.550;7.980;2022-12-18T08:29:59;-2.80;99.90
18823;DHT22;9540;51.550;7.980;2022-12-18T08:32:27;-2.60;99.90
18823;DHT22;9540;51.550;7.980;2022-12-18T08:34:55;-2.40;99.90
18823;DHT22;9540;51.550;7.980;2022-12-18T08:37:22;-2.20;99.90
18823;DHT22;9540;51.550;7.980;2022-12-18T08:39:49;-2.00;99.90
18823;DHT22;9540;51.550;7.980;2022-12-18T08:42:16;-1.70;99.90
18823;DHT22;9540;51.550;7.980;2022-12-18T08:45:01;-1.30;99.90
18823;DHT22;9540;51.550;7.980;2022-12-18T08:47:28;-0.80;99.90
18823;DHT22;9540;51.550;7.980;2022-12-18T08:49:56;-0.50;99.90
18823;DHT22;9540;51.550;7.980;2022-12-18T08:52:24;-0.50;99.90
18823;DHT22;9540;51.550;7.980;2022-12-18T08:54:50;-0.60;99.90
18823;DHT22;9540;51.550;7.980;2022-12-18T08:57:17;-1.00;99.90
18823;DHT22;9540;51.550;7.980;2022-12-18T08:59:44;-1.50;99.90
18823;DHT22;9540;51.550;7.980;2022-12-18T09:02:11;-1.90;99.90
18823;DHT22;9540;51.550;7.980;2022-12-18T09:04:38;-2.50;99.90
18823;DHT22;9540;51.550;7.980;2022-12-18T09:07:07;-2.70;99.90
18823;DHT22;9540;51.550;7.980;2022-12-18T09:09:34;-2.80;99.90
18823;DHT22;9540;51.550;7.980;2022-12-18T09:12:03;-3.10;99.90
18823;DHT22;9540;51.550;7.980;2022-12-18T09:14:29;-3.00;99.90
18823;DHT22;9540;51.550;7.980;2022-12-18T09:16:57;-2.50;99.90
18823;DHT22;9540;51.550;7.980;2022-12-18T09:19:24;-2.10;99.90
18823;DHT22;9540;51.550;7.980;2022-12-18T09:21:51;-2.20;99.90
18823;DHT22;9540;51.550;7.980;2022-12-18T09:24:19;-2.00;99.90
18823;DHT22;9540;51.550;7.980;2022-12-18T09:26:46;-1.40;99.90
18823;DHT22;9540;51.550;7.980;2022-12-18T09:29:13;-0.70;99.90
18823;DHT22;9540;51.550;7.980;2022-12-18T09:31:40;-0.40;99.90
18823;DHT22;9540;51.550;7.980;2022-12-18T09:34:07;-0.80;99.90
18823;DHT22;9540;51.550;7.980;2022-12-18T09:36:34;-0.70;99.90
18823;DHT22;9540;51.550;7.980;2022-12-18T09:39:01;-0.70;99.90
18823;DHT22;9540;51.550;7.980;2022-12-18T09:41:41;-0.50;99.90
18823;DHT22;9540;51.550;7.980;2022-12-18T09:44:20;0.00;99.90
18823;DHT22;9540;51.550;7.980;2022-12-18T09:46:51;0.30;99.90
18823;DHT22;9540;51.550;7.980;2022-12-18T09:49:22;0.40;99.90
18823;DHT22;9540;51.550;7.980;2022-12-18T09:51:54;0.50;99.90
18823;DHT22;9540;51.550;7.980;2022-12-18T09:54:25;0.20;99.90
18823;DHT22;9540;51.550;7.980;2022-12-18T09:56:54;-0.20;99.90
18823;DHT22;9540;51.550;7.980;2022-12-18T09:59:24;-0.50;99.90
18823;DHT22;9540;51.550;7.980;2022-12-18T10:01:51;-0.60;99.90
18823;DHT22;9540;51.550;7.980;2022-12-18T10:04:18;-0.60;99.90
18823;DHT22;9540;51.550;7.980;2022-12-18T10:06:50;-0.20;99.90
18823;DHT22;9540;51.550;7.980;2022-12-18T10:09:26;0.30;99.90
18823;DHT22;9540;51.550;7.980;2022-12-18T10:12:02;0.70;99.90
18823;DHT22;9540;51.550;7.980;2022-12-18T10:14:36;1.00;99.90
18823;DHT22;9540;51.550;7.980;2022-12-18T10:17:16;0.60;99.90
18823;DHT22;9540;51.550;7.980;2022-12-18T10:19:49;0.60;99.90
18823;DHT22;9540;51.550;7.980;2022-12-18T10:22:26;0.50;99.90
18823;DHT22;9540;51.550;7.980;2022-12-18T10:25:02;0.60;99.90
18823;DHT22;9540;51.550;7.980;2022-12-18T10:27:31;0.40;99.90
18823;DHT22;9540;51.550;7.980;2022-12-18T10:29:58;0.20;99.90
18823;DHT22;9540;51.550;7.980;2022-12-18T10:32:28;0.20;99.90
18823;DHT22;9540;51.550;7.980;2022-12-18T10:34:57;0.40;99.90
18823;DHT22;9540;51.550;7.980;2022-12-18T10:37:26;0.50;99.90
18823;DHT22;9540;51.550;7.980;2022-12-18T10:40:12;0.60;99.90
18823;DHT22;9540;51.550;7.980;2022-12-18T10:42:41;0.90;99.90
18823;DHT22;9540;51.550;7.980;2022-12-18T10:45:12;0.80;99.90
18823;DHT22;9540;51.550;7.980;2022-12-18T10:47:42;0.90;99.90
18823;DHT22;9540;51.550;7.980;2022-12-18T10:50:19;1.10;99.90
18823;DHT22;9540;51.550;7.980;2022-12-18T10:52:54;1.00;99.90
18823;DHT22;9540;51.550;7.980;2022-12-18T10:55:22;0.70;99.90
18823;DHT22;9540;51.550;7.980;2022-12-18T10:57:51;0.60;99.90
18823;DHT22;9540;51.550;7.980;2022-12-18T11:00:26;0.60;99.90
18823;DHT22;9540;51.550;7.980;2022-12-18T11:02:54;0.60;99.90
18823;DHT22;9540;51.550;7.980;2022-12-18T11:05:28;0.50;99.90
18823;DHT22;9540;51.550;7.980;2022-12-18T11:07:57;0.50;99.90
18823;DHT22;9540;51.550;7.980;2022-12-18T11:10:28;0.60;99.90
18823;DHT22;9540;51.550;7.980;2022-12-18T11:13:09;0.40;99.90
18823;DHT22;9540;51.550;7.980;2022-12-18T11:15:40;0.30;99.90
18823;DHT22;9540;51.550;7.980;2022-12-18T11:18:17;0.20;99.90
18823;DHT22;9540;51.550;7.980;2022-12-18T11:20:50;0.30;99.90
18823;DHT22;9540;51.550;7.980;2022-12-18T11:23:19;0.50;99.90
18823;DHT22;9540;51.550;7.980;2022-12-18T11:25:54;0.70;99.90
18823;DHT22;9540;51.550;7.980;2022-12-18T11:28:35;0.80;99.90
18823;DHT22;9540;51.550;7.980;2022-12-18T11:31:27;1.00;99.90
18823;DHT22;9540;51.550;7.980;2022-12-18T11:34:00;1.30;99.90
18823;DHT22;9540;51.550;7.980;2022-12-18T11:36:31;1.30;99.90
18823;DHT22;9540;51.550;7.980;2022-12-18T11:39:05;1.30;99.90
18823;DHT22;9540;51.550;7.980;2022-12-18T11:41:41;1.30;99.90
18823;DHT22;9540;51.550;7.980;2022-12-18T11:44:38;1.30;99.90
18823;DHT22;9540;51.550;7.980;2022-12-18T11:47:12;1.10;99.90
18823;DHT22;9540;51.550;7.980;2022-12-18T11:49:41;1.10;99.90
18823;DHT22;9540;51.550;7.980;2022-12-18T11:52:13;0.90;99.90
18823;DHT22;9540;51.550;7.980;2022-12-18T11:54:42;0.60;99.90
18823;DHT22;9540;51.550;7.980;2022-12-18T11:57:15;0.50;99.90
18823;DHT22;9540;51.550;7.980;2022-12-18T11:59:50;0.40;99.90
18823;DHT22;9540;51.550;7.980;2022-12-18T12:02:35;0.20;99.90
18823;DHT22;9540;51.550;7.980;2022-12-18T12:05:14;0.20;99.90
18823;DHT22;9540;51.550;7.980;2022-12-18T12:07:49;0.20;99.90
18823;DHT22;9540;51.550;7.980;2022-12-18T12:10:31;0.10;99.90
18823;DHT22;9540;51.550;7.980;2022-12-18T12:13:13;0.00;99.90
18823;DHT22;9540;51.550;7.980;2022-12-18T12:15:53;-0.10;99.90
18823;DHT22;9540;51.550;7.980;2022-12-18T12:18:28;-0.20;99.90
18823;DHT22;9540;51.550;7.980;2022-12-18T12:21:02;-0.30;99.90
18823;DHT22;9540;51.550;7.980;2022-12-18T12:23:38;-0.30;99.90
18823;DHT22;9540;51.550;7.980;2022-12-18T12:26:11;-0.30;99.90
18823;DHT22;9540;51.550;7.980;2022-12-18T12:28:52;-0.30;99.90
18823;DHT22;9540;51.550;7.980;2022-12-18T12:31:33;-0.20;99.90
18823;DHT22;9540;51.550;7.980;2022-12-18T12:34:11;-0.20;99.90
18823;DHT22;9540;51.550;7.980;2022-12-18T12:36:51;-0.10;99.90
18823;DHT22;9540;51.550;7.980;2022-12-18T12:39:22;0.00;99.90
18823;DHT22;9540;51.550;7.980;2022-12-18T12:41:51;0.00;99.90
18823;DHT22;9540;51.550;7.980;2022-12-18T12:44:38;0.10;99.90
18823;DHT22;9540;51.550;7.980;2022-12-18T12:47:13;0.00;99.90
18823;DHT22;9540;51.550;7.980;2022-12-18T12:49:45;0.00;99.90
18823;DHT22;9540;51.550;7.980;2022-12-18T12:52:17;-0.10;99.90
18823;DHT22;9540;51.550;7.980;2022-12-18T12:54:48;-0.30;99.90
18823;DHT22;9540;51.550;7.980;2022-12-18T12:57:19;-0.40;99.90
18823;DHT22;9540;51.550;7.980;2022-12-18T12:59:52;-0.50;99.90
18823;DHT22;9540;51.550;7.980;2022-12-18T13:02:30;-0.40;99.90
18823;DHT22;9540;51.550;7.980;2022-12-18T13:05:02;-0.40;99.90
18823;DHT22;9540;51.550;7.980;2022-12-18T13:07:34;-0.40;99.90
18823;DHT22;9540;51.550;7.980;2022-12-18T13:10:25;-0.40;99.90
18823;DHT22;9540;51.550;7.980;2022-12-18T13:12:56;-0.50;99.90
18823;DHT22;9540;51.550;7.980;2022-12-18T13:15:25;-0.50;99.90
18823;DHT22;9540;51.550;7.980;2022-12-18T13:18:13;-0.50;99.90
18823;DHT22;9540;51.550;7.980;2022-12-18T13:20:42;-0.50;99.90
18823;DHT22;9540;51.550;7.980;2022-12-18T13:23:31;-0.50;99.90
18823;DHT22;9540;51.550;7.980;2022-12-18T13:25:59;-0.50;99.90
18823;DHT22;9540;51.550;7.980;2022-12-18T13:28:51;-0.50;99.90
18823;DHT22;9540;51.550;7.980;2022-12-18T13:34:36;-0.50;99.90
18823;DHT22;9540;51.550;7.980;2022-12-18T13:37:42;-0.50;99.90
18823;DHT22;9540;51.550;7.980;2022-12-18T13:43:32;-0.50;99.90
18823;DHT22;9540;51.550;7.980;2022-12-18T13:46:05;-0.40;99.90
18823;DHT22;9540;51.550;7.980;2022-12-18T13:48:35;-0.40;99.90
18823;DHT22;9540;51.550;7.980;2022-12-18T13:51:06;-0.40;99.90
18823;DHT22;9540;51.550;7.980;2022-12-18T13:53:38;-0.40;99.90
18823;DHT22;9540;51.550;7.980;2022-12-18T13:56:09;-0.50;99.90
18823;DHT22;9540;51.550;7.980;2022-12-18T13:58:36;-0.50;99.90
18823;DHT22;9540;51.550;7.980;2022-12-18T14:01:02;-0.50;99.90
18823;DHT22;9540;51.550;7.980;2022-12-18T14:03:30;-0.60;99.90
18823;DHT22;9540;51.550;7.980;2022-12-18T14:06:01;-0.50;99.90
18823;DHT22;9540;51.550;7.980;2022-12-18T14:08:34;-0.50;99.90
18823;DHT22;9540;51.550;7.980;2022-12-18T14:11:04;-0.50;99.90
18823;DHT22;9540;51.550;7.980;2022-12-18T14:13:35;-0.50;99.90
18823;DHT22;9540;51.550;7.980;2022-12-18T14:16:05;-0.60;99.90
18823;DHT22;9540;51.550;7.980;2022-12-18T14:18:38;-0.60;99.90
18823;DHT22;9540;51.550;7.980;2022-12-18T14:21:18;-0.60;99.90
18823;DHT22;9540;51.550;7.980;2022-12-18T14:23:47;-0.60;99.90
18823;DHT22;9540;51.550;7.980;2022-12-18T14:26:23;-0.60;99.90
18823;DHT22;9540;51.550;7.980;2022-12-18T14:28:52;-0.70;99.90
18823;DHT22;9540;51.550;7.980;2022-12-18T14:31:22;-0.70;99.90
18823;DHT22;9540;51.550;7.980;2022-12-18T14:33:49;-0.70;99.90
18823;DHT22;9540;51.550;7.980;2022-12-18T14:36:18;-0.80;99.90
18823;DHT22;9540;51.550;7.980;2022-12-18T14:38:50;-0.90;99.90
18823;DHT22;9540;51.550;7.980;2022-12-18T14:41:18;-0.90;99.90
18823;DHT22;9540;51.550;7.980;2022-12-18T14:43:49;-0.90;99.90
18823;DHT22;9540;51.550;7.980;2022-12-18T14:46:32;-1.00;99.90
18823;DHT22;9540;51.550;7.980;2022-12-18T14:49:02;-1.10;99.90
18823;DHT22;9540;51.550;7.980;2022-12-18T14:51:31;-1.10;99.90
18823;DHT22;9540;51.550;7.980;2022-12-18T14:54:02;-1.20;99.90
18823;DHT22;9540;51.550;7.980;2022-12-18T14:56:30;-1.20;99.90
18823;DHT22;9540;51.550;7.980;2022-12-18T14:58:59;-1.30;99.90
18823;DHT22;9540;51.550;7.980;2022-12-18T15:01:29;-1.30;99.90
18823;DHT22;9540;51.550;7.980;2022-12-18T15:03:58;-1.40;99.90
18823;DHT22;9540;51.550;7.980;2022-12-18T15:06:29;-1.40;99.90
18823;DHT22;9540;51.550;7.980;2022-12-18T15:08:57;-1.50;99.90
18823;DHT22;9540;51.550;7.980;2022-12-18T15:11:47;-1.60;99.90
18823;DHT22;9540;51.550;7.980;2022-12-18T15:14:30;-1.60;99.90
18823;DHT22;9540;51.550;7.980;2022-12-18T15:16:58;-1.70;99.90
18823;DHT22;9540;51.550;7.980;2022-12-18T15:19:31;-1.70;99.90
18823;DHT22;9540;51.550;7.980;2022-12-18T15:21:59;-1.60;99.90
18823;DHT22;9540;51.550;7.980;2022-12-18T15:24:29;-1.70;99.90
18823;DHT22;9540;51.550;7.980;2022-12-18T15:26:58;-1.70;99.90
18823;DHT22;9540;51.550;7.980;2022-12-18T15:29:25;-1.80;99.90
18823;DHT22;9540;51.550;7.980;2022-12-18T15:32:01;-1.70;99.90
18823;DHT22;9540;51.550;7.980;2022-12-18T15:34:28;-1.70;99.90
18823;DHT22;9540;51.550;7.980;2022-12-18T15:36:55;-1.70;99.90
18823;DHT22;9540;51.550;7.980;2022-12-18T15:39:22;-1.70;99.90
18823;DHT22;9540;51.550;7.980;2022-12-18T15:41:49;-1.70;99.90
18823;DHT22;9540;51.550;7.980;2022-12-18T15:44:35;-1.70;99.90
18823;DHT22;9540;51.550;7.980;2022-12-18T15:47:03;-1.60;99.90
18823;DHT22;9540;51.550;7.980;2022-12-18T15:49:30;-1.70;99.90
18823;DHT22;9540;51.550;7.980;2022-12-18T15:51:59;-1.70;99.90
18823;DHT22;9540;51.550;7.980;2022-12-18T15:54:26;-1.70;99.90
18823;DHT22;9540;51.550;7.980;2022-12-18T15:57:11;-1.60;99.90
18823;DHT22;9540;51.550;7.980;2022-12-18T15:59:53;-1.60;99.90
18823;DHT22;9540;51.550;7.980;2022-12-18T16:02:22;-1.40;99.90
18823;DHT22;9540;51.550;7.980;2022-12-18T16:04:50;-0.90;99.90
18823;DHT22;9540;51.550;7.980;2022-12-18T16:07:16;-0.50;99.90
18823;DHT22;9540;51.550;7.980;2022-12-18T16:09:43;-0.40;99.90
18823;DHT22;9540;51.550;7.980;2022-12-18T16:12:19;-0.30;99.90